Time;durP1;ratioP1;P1;durP2;ratioP2;P2;SDS_P1;SDS_P2;PMS_P1;PMS_P2;Temp;Humidity;BMP_temperature;BMP_pressure;BME280_temperature;BME280_humidity;BME280_pressure;Samples;Min_cycle;Max_cycle;Signal;HPM_P1;HPM_P2
2024/02/24 00:00:48;;;;;;;7.00;3.38;;;;;;;-141.50;100.00;63355.56;4990267;28;20049;-77
2024/02/24 00:03:15;;;;;;;5.97;3.00;;;;;;;-141.50;100.00;63355.56;5008410;28;20049;-79
2024/02/24 00:05:43;;;;;;;10.40;3.55;;;;;;;-141.50;100.00;63355.56;4998508;28;20535;-78
2024/02/24 00:08:10;;;;;;;9.15;3.97;;;;;;;-141.50;100.00;63355.56;5008339;28;20038;-79
2024/02/24 00:10:38;;;;;;;9.93;3.78;;;;;;;-141.50;100.00;63355.56;4992007;28;20162;-79
2024/02/24 00:13:07;;;;;;;8.15;3.50;;;;;;;-141.50;100.00;63355.56;5008075;28;20045;-79
2024/02/24 00:15:33;;;;;;;7.40;3.35;;;;;;;-141.50;100.00;63355.56;4998292;28;20050;-77
2024/02/24 00:18:00;;;;;;;9.63;3.50;;;;;;;-141.50;100.00;63355.56;5018055;28;20190;-78
2024/02/24 00:20:27;;;;;;;5.10;2.75;;;;;;;-141.50;100.00;63355.56;5010276;28;20042;-78
2024/02/24 00:22:54;;;;;;;7.30;2.88;;;;;;;-141.50;100.00;63355.56;4992120;28;20050;-78
2024/02/24 00:25:21;;;;;;;9.70;3.72;;;;;;;-141.50;100.00;63355.56;5007680;28;20053;-78
2024/02/24 00:27:47;;;;;;;9.27;4.13;;;;;;;-141.50;100.00;63355.56;4984727;28;20134;-79
2024/02/24 00:30:15;;;;;;;9.88;4.10;;;;;;;-141.50;100.00;63355.56;5008049;28;20508;-77
2024/02/24 00:32:42;;;;;;;12.52;4.30;;;;;;;-141.50;100.00;63355.56;5008329;28;20046;-79
2024/02/24 00:35:09;;;;;;;11.77;4.10;;;;;;;-141.50;100.00;63355.56;5009111;28;20542;-79
2024/02/24 00:37:36;;;;;;;9.55;4.30;;;;;;;-141.50;100.00;63355.56;5008108;28;20038;-79
2024/02/24 00:40:03;;;;;;;10.10;3.65;;;;;;;-141.50;100.00;63355.56;4991314;28;20042;-78
2024/02/24 00:42:29;;;;;;;7.97;3.30;;;;;;;-141.50;100.00;63355.56;5006815;28;20046;-78
2024/02/24 00:44:56;;;;;;;7.47;3.38;;;;;;;-141.50;100.00;63355.56;5007519;28;20042;-78
2024/02/24 00:47:23;;;;;;;8.18;3.22;;;;;;;-141.50;100.00;63355.56;4990576;28;20058;-78
2024/02/24 00:49:49;;;;;;;8.35;3.10;;;;;;;-141.50;100.00;63355.56;4990267;28;20046;-78
2024/02/24 00:52:16;;;;;;;7.70;2.78;;;;;;;-141.50;100.00;63355.56;4982706;28;20114;-78
2024/02/24 00:54:43;;;;;;;7.10;2.85;;;;;;;-141.50;100.00;63355.56;4993827;28;20050;-77
2024/02/24 00:57:10;;;;;;;9.07;3.80;;;;;;;-141.50;100.00;63355.56;4990363;28;20046;-78
2024/02/24 00:59:36;;;;;;;11.40;5.28;;;;;;;-141.50;100.00;63355.56;4989436;28;20104;-78
2024/02/24 01:02:03;;;;;;;14.25;5.90;;;;;;;-141.50;100.00;63355.56;5006203;28;20066;-78
2024/02/24 01:04:30;;;;;;;12.15;5.07;;;;;;;-141.50;100.00;63355.56;5001933;28;20061;-78
2024/02/24 01:06:57;;;;;;;10.52;4.95;;;;;;;-141.50;100.00;63355.56;5008953;28;20531;-78
2024/02/24 01:09:25;;;;;;;10.85;4.75;;;;;;;-141.50;100.00;63355.56;5009084;28;20053;-78
2024/02/24 01:11:51;;;;;;;7.82;3.85;;;;;;;-141.50;100.00;63355.56;5009802;28;20049;-79
2024/02/24 01:14:18;;;;;;;13.18;4.47;;;;;;;-141.50;100.00;63355.56;5008036;28;20054;-78
2024/02/24 01:16:45;;;;;;;13.13;4.32;;;;;;;-141.50;100.00;63355.56;4992107;28;20508;-78
2024/02/24 01:19:12;;;;;;;12.98;4.35;;;;;;;-141.50;100.00;63355.56;4989810;28;20223;-77
2024/02/24 01:21:43;;;;;;;7.47;3.47;;;;;;;-141.50;100.00;63355.56;5011214;28;20049;-77
2024/02/24 01:24:10;;;;;;;8.00;3.17;;;;;;;-141.50;100.00;63355.56;5000562;28;20073;-77
2024/02/24 01:26:36;;;;;;;9.25;3.15;;;;;;;-141.50;100.00;63355.56;5010883;28;20508;-78
2024/02/24 01:29:03;;;;;;;10.63;2.97;;;;;;;-141.50;100.00;63355.56;5009068;28;20401;-78
2024/02/24 01:31:31;;;;;;;7.55;2.70;;;;;;;-141.50;100.00;63355.56;4988398;28;20042;-78
2024/02/24 01:33:58;;;;;;;7.13;2.78;;;;;;;-141.50;100.00;63355.56;5009699;28;20571;-79
2024/02/24 01:36:25;;;;;;;4.80;2.60;;;;;;;-141.50;100.00;63355.56;5007735;28;20060;-78
2024/02/24 01:38:55;;;;;;;11.10;2.92;;;;;;;-141.50;100.00;63355.56;5008821;28;20218;-79
2024/02/24 01:41:22;;;;;;;5.45;2.67;;;;;;;-141.50;100.00;63355.56;4986272;28;20531;-78
2024/02/24 01:43:48;;;;;;;5.82;2.45;;;;;;;-141.50;100.00;63355.56;5009248;28;20088;-78
2024/02/24 01:46:16;;;;;;;4.68;2.30;;;;;;;-141.50;100.00;63355.56;4990485;28;20068;-79
2024/02/24 01:48:42;;;;;;;6.30;2.80;;;;;;;-141.50;100.00;63355.56;5012111;28;20052;-78
2024/02/24 01:51:10;;;;;;;6.00;2.60;;;;;;;-141.50;100.00;63355.56;4994636;28;20069;-79
2024/02/24 01:53:37;;;;;;;7.32;2.80;;;;;;;-141.50;100.00;63355.56;5022497;28;20085;-77
2024/02/24 01:56:08;;;;;;;4.40;2.38;;;;;;;-141.50;100.00;63355.56;4994341;28;20493;-77
2024/02/24 01:58:37;;;;;;;8.35;2.35;;;;;;;-141.50;100.00;63355.56;4988444;28;20631;-77
2024/02/24 02:01:05;;;;;;;5.15;2.50;;;;;;;-141.50;100.00;63355.56;4982824;28;20052;-77
2024/02/24 02:03:33;;;;;;;6.45;2.40;;;;;;;-141.50;100.00;63355.56;4992676;28;20108;-79
2024/02/24 02:06:02;;;;;;;7.15;2.45;;;;;;;-141.50;100.00;63355.56;5010991;28;20504;-76
2024/02/24 02:08:29;;;;;;;3.95;2.15;;;;;;;-141.50;100.00;63355.56;5008274;28;20385;-79
2024/02/24 02:10:56;;;;;;;5.93;2.70;;;;;;;-141.50;100.00;63355.56;4994170;28;20049;-79
2024/02/24 02:13:23;;;;;;;8.75;2.65;;;;;;;-141.50;100.00;63355.56;5009472;28;20046;-79
2024/02/24 02:15:53;;;;;;;6.35;2.30;;;;;;;-141.50;100.00;63355.56;5012125;28;20835;-78
2024/02/24 02:18:20;;;;;;;4.35;2.28;;;;;;;-141.50;100.00;63355.56;4991826;28;20508;-79
2024/02/24 02:20:51;;;;;;;4.75;2.35;;;;;;;-141.50;100.00;63355.56;5012612;28;20056;-77
2024/02/24 02:23:19;;;;;;;8.27;2.67;;;;;;;-141.50;100.00;63355.56;4993082;28;20061;-77
2024/02/24 02:25:46;;;;;;;5.40;2.20;;;;;;;-141.50;100.00;63355.56;5004948;28;20081;-79
2024/02/24 02:28:12;;;;;;;5.40;2.38;;;;;;;-141.50;100.00;63355.56;4990954;28;20066;-78
2024/02/24 02:30:40;;;;;;;5.32;2.63;;;;;;;-141.50;100.00;63355.56;5008511;28;20065;-79
2024/02/24 02:33:08;;;;;;;4.70;2.22;;;;;;;-141.50;100.00;63355.56;4991624;28;20100;-79
2024/02/24 02:35:36;;;;;;;6.03;2.55;;;;;;;-141.50;100.00;63355.56;5009963;28;20128;-80
2024/02/24 02:38:07;;;;;;;5.47;2.30;;;;;;;-141.50;100.00;63355.56;5009339;28;20060;-77
2024/02/24 02:40:35;;;;;;;7.50;2.80;;;;;;;-141.50;100.00;63355.56;5004857;28;20571;-76
2024/02/24 02:43:02;;;;;;;5.32;2.67;;;;;;;-141.50;100.00;63355.56;5010621;28;20049;-78
2024/02/24 02:45:28;;;;;;;8.02;2.60;;;;;;;-141.50;100.00;63355.56;5011084;28;20057;-79
2024/02/24 02:47:55;;;;;;;4.97;2.42;;;;;;;-141.50;100.00;63355.56;4992121;28;20070;-78
2024/02/24 02:50:22;;;;;;;8.25;2.83;;;;;;;-141.50;100.00;63355.56;5008719;28;20054;-78
2024/02/24 02:52:49;;;;;;;6.28;2.63;;;;;;;-141.50;100.00;63355.56;5009689;28;20317;-78
2024/02/24 02:55:18;;;;;;;4.63;2.60;;;;;;;-141.50;100.00;63355.56;5009070;28;20050;-78
2024/02/24 02:57:46;;;;;;;6.07;2.92;;;;;;;-141.50;100.00;63355.56;5010410;28;20057;-79
2024/02/24 03:00:13;;;;;;;7.57;2.67;;;;;;;-141.50;100.00;63355.56;5008544;28;20058;-78
2024/02/24 03:02:39;;;;;;;7.75;2.50;;;;;;;-141.50;100.00;63355.56;5010527;28;20049;-79
2024/02/24 03:05:07;;;;;;;7.30;2.78;;;;;;;-141.50;100.00;63355.56;5010069;28;20455;-79
2024/02/24 03:07:34;;;;;;;9.40;2.85;;;;;;;-141.50;100.00;63355.56;5000406;28;20523;-78
2024/02/24 03:10:01;;;;;;;13.30;5.40;;;;;;;-141.50;100.00;63355.56;5010412;28;20049;-79
2024/02/24 03:12:29;;;;;;;10.95;4.30;;;;;;;-141.50;100.00;63355.56;4991605;28;20045;-78
2024/02/24 03:14:56;;;;;;;10.57;4.05;;;;;;;-141.50;100.00;63355.56;4992099;28;20062;-78
2024/02/24 03:17:23;;;;;;;11.40;3.28;;;;;;;-141.50;100.00;63355.56;4986947;28;20210;-78
2024/02/24 03:19:50;;;;;;;14.48;4.22;;;;;;;-141.50;100.00;63355.56;5009520;28;20365;-79
2024/02/24 03:22:16;;;;;;;11.18;3.60;;;;;;;-141.50;100.00;63355.56;4992477;28;20567;-78
2024/02/24 03:24:43;;;;;;;6.68;2.97;;;;;;;-141.50;100.00;63355.56;4992932;28;20061;-78
2024/02/24 03:27:13;;;;;;;6.65;2.58;;;;;;;-141.50;100.00;63355.56;5000349;28;20046;-78
2024/02/24 03:29:40;;;;;;;5.75;2.50;;;;;;;-141.50;100.00;63355.56;4992869;28;20125;-77
2024/02/24 03:32:07;;;;;;;7.47;2.03;;;;;;;-141.50;100.00;63355.56;5012024;28;20068;-78
2024/02/24 03:34:34;;;;;;;6.55;2.38;;;;;;;-141.50;100.00;63355.56;5009041;28;20045;-79
2024/02/24 03:37:01;;;;;;;6.00;2.47;;;;;;;-141.50;100.00;63355.56;5008845;28;20054;-78
2024/02/24 03:39:27;;;;;;;5.90;2.38;;;;;;;-141.50;100.00;63355.56;4988904;28;20038;-77
2024/02/24 03:41:54;;;;;;;6.13;2.22;;;;;;;-141.50;100.00;63355.56;5008879;28;20054;-79
2024/02/24 03:44:21;;;;;;;6.38;2.58;;;;;;;-141.50;100.00;63355.56;4990671;28;20536;-78
2024/02/24 03:46:48;;;;;;;5.45;2.15;;;;;;;-141.50;100.00;63355.56;5009950;28;20073;-78
2024/02/24 03:49:15;;;;;;;4.50;2.28;;;;;;;-141.50;100.00;63355.56;5007937;28;20133;-78
2024/02/24 03:51:41;;;;;;;4.20;2.20;;;;;;;-141.50;100.00;63355.56;4989234;28;20183;-79
2024/02/24 03:54:10;;;;;;;6.38;1.85;;;;;;;-141.50;100.00;63355.56;4983426;28;20049;-79
2024/02/24 03:56:37;;;;;;;4.47;1.80;;;;;;;-141.50;100.00;63355.56;4991010;28;20058;-79
2024/02/24 03:59:04;;;;;;;6.22;1.80;;;;;;;-141.50;100.00;63355.56;5008265;28;20643;-77
2024/02/24 04:01:31;;;;;;;6.13;1.85;;;;;;;-141.50;100.00;63355.56;5001844;28;20050;-78
2024/02/24 04:04:00;;;;;;;4.32;1.58;;;;;;;-141.50;100.00;63355.56;5008488;28;20058;-78
2024/02/24 04:06:26;;;;;;;5.43;1.73;;;;;;;-141.50;100.00;63355.56;5008110;28;20064;-78
2024/02/24 04:08:53;;;;;;;3.40;1.35;;;;;;;-141.50;100.00;63355.56;5009039;28;20140;-78
2024/02/24 04:11:20;;;;;;;4.97;1.50;;;;;;;-141.50;100.00;63355.56;4990347;28;20065;-78
2024/02/24 04:13:48;;;;;;;2.40;1.35;;;;;;;-141.50;100.00;63355.56;5009213;28;20058;-78
2024/02/24 04:16:14;;;;;;;3.05;1.45;;;;;;;-141.50;100.00;63355.56;4986672;28;20053;-79
2024/02/24 04:18:41;;;;;;;4.75;1.50;;;;;;;-141.50;100.00;63355.56;4973799;28;20058;-79
2024/02/24 04:21:08;;;;;;;4.90;1.90;;;;;;;-141.50;100.00;63355.56;5010549;28;20060;-77
2024/02/24 04:23:34;;;;;;;4.82;1.05;;;;;;;-141.50;100.00;63355.56;5005371;28;20073;-78
2024/02/24 04:26:01;;;;;;;6.13;1.13;;;;;;;-141.50;100.00;63355.56;4989009;28;20054;-76
2024/02/24 04:28:30;;;;;;;1.77;0.68;;;;;;;-141.50;100.00;63355.56;4981607;28;20045;-77
2024/02/24 04:30:57;;;;;;;3.53;0.85;;;;;;;-141.50;100.00;63355.56;5006365;28;20050;-77
2024/02/24 04:33:24;;;;;;;3.50;0.60;;;;;;;-141.50;100.00;63355.56;5007316;28;20057;-76
2024/02/24 04:35:50;;;;;;;2.63;0.50;;;;;;;-141.50;100.00;63355.56;5008815;28;20046;-77
2024/02/24 04:38:17;;;;;;;1.38;0.40;;;;;;;-141.50;100.00;63355.56;4990570;28;20058;-78
2024/02/24 04:40:44;;;;;;;2.03;0.40;;;;;;;-141.50;100.00;63355.56;5008693;28;20057;-77
2024/02/24 04:43:11;;;;;;;2.00;0.50;;;;;;;-141.50;100.00;63355.56;5005196;28;20088;-79
2024/02/24 04:45:38;;;;;;;1.70;0.45;;;;;;;-141.50;100.00;63355.56;5007270;28;20263;-79
2024/02/24 04:48:05;;;;;;;2.42;0.32;;;;;;;-141.50;100.00;63355.56;5006583;28;20065;-78
2024/02/24 04:50:32;;;;;;;3.65;0.70;;;;;;;-141.50;100.00;63355.56;5002154;28;20103;-79
2024/02/24 04:52:59;;;;;;;1.63;0.52;;;;;;;-141.50;100.00;63355.56;4981232;28;20058;-79
2024/02/24 04:55:25;;;;;;;1.58;0.60;;;;;;;-141.50;100.00;63355.56;5007262;28;20108;-77
2024/02/24 04:57:52;;;;;;;1.27;0.50;;;;;;;-141.50;100.00;63355.56;5008527;28;20120;-77
2024/02/24 05:00:19;;;;;;;2.35;0.55;;;;;;;-141.50;100.00;63355.56;5007915;28;20057;-79
2024/02/24 05:02:45;;;;;;;3.28;0.60;;;;;;;-141.50;100.00;63355.56;4990044;28;20133;-79
2024/02/24 05:05:13;;;;;;;4.63;0.68;;;;;;;-141.50;100.00;63355.56;5010795;28;20093;-77
2024/02/24 05:07:39;;;;;;;2.38;0.60;;;;;;;-141.50;100.00;63355.56;5009959;28;20102;-76
2024/02/24 05:10:07;;;;;;;6.45;0.73;;;;;;;-141.50;100.00;63355.56;4988913;28;20101;-79
2024/02/24 05:12:34;;;;;;;3.33;0.50;;;;;;;-141.50;100.00;63355.56;5001789;28;20219;-79
2024/02/24 05:15:02;;;;;;;4.25;0.80;;;;;;;-141.50;100.00;63355.56;4983366;28;20054;-79
2024/02/24 05:17:29;;;;;;;3.05;0.70;;;;;;;-141.50;100.00;63355.56;5007580;28;20042;-78
2024/02/24 05:19:55;;;;;;;2.63;0.60;;;;;;;-141.50;100.00;63355.56;5009307;28;20137;-79
2024/02/24 05:22:22;;;;;;;1.77;0.52;;;;;;;-141.50;100.00;63355.56;5011888;28;20072;-77
2024/02/24 05:24:49;;;;;;;3.08;0.82;;;;;;;-141.50;100.00;63355.56;5022571;28;20118;-77
2024/02/24 05:27:15;;;;;;;3.88;1.00;;;;;;;-141.50;100.00;63355.56;4995482;28;20112;-79
2024/02/24 05:29:46;;;;;;;1.35;0.70;;;;;;;-141.50;100.00;63355.56;5012434;28;20066;-78
2024/02/24 05:32:16;;;;;;;3.13;0.60;;;;;;;-141.50;100.00;63355.56;4993454;28;20695;-79
2024/02/24 05:34:43;;;;;;;3.58;0.82;;;;;;;-141.50;100.00;63355.56;5008458;28;20054;-79
2024/02/24 05:37:10;;;;;;;1.83;0.85;;;;;;;-141.50;100.00;63355.56;4995664;28;20065;-78
2024/02/24 05:39:38;;;;;;;5.47;0.98;;;;;;;-141.50;100.00;63355.56;5012027;28;20229;-77
2024/02/24 05:42:05;;;;;;;3.50;0.73;;;;;;;-141.50;100.00;63355.56;5012116;28;20148;-78
2024/02/24 05:44:32;;;;;;;5.35;0.60;;;;;;;-141.50;100.00;63355.56;5011220;28;20050;-78
2024/02/24 05:46:59;;;;;;;3.03;1.00;;;;;;;-141.50;100.00;63355.56;5012418;28;20064;-79
2024/02/24 05:49:26;;;;;;;3.00;0.80;;;;;;;-141.50;100.00;63355.56;4991720;28;20049;-77
2024/02/24 05:51:53;;;;;;;2.97;0.90;;;;;;;-141.50;100.00;63355.56;4992508;28;20196;-78
2024/02/24 05:54:20;;;;;;;2.33;0.70;;;;;;;-141.50;100.00;63355.56;4991951;28;20503;-77
2024/02/24 05:56:47;;;;;;;4.50;1.10;;;;;;;-141.50;100.00;63355.56;5010640;28;20085;-77
2024/02/24 05:59:14;;;;;;;3.50;1.38;;;;;;;-141.50;100.00;63355.56;5011140;28;20060;-79
2024/02/24 06:01:40;;;;;;;1.42;0.80;;;;;;;-141.50;100.00;63355.56;5010610;28;20141;-79
2024/02/24 06:04:07;;;;;;;2.45;0.63;;;;;;;-141.50;100.00;63355.56;4992299;28;20530;-78
2024/02/24 06:06:34;;;;;;;3.80;0.80;;;;;;;-141.50;100.00;63355.56;4999996;28;20408;-79
2024/02/24 06:09:01;;;;;;;2.13;0.68;;;;;;;-141.50;100.00;63355.56;5009923;28;20149;-77
2024/02/24 06:11:27;;;;;;;0.95;0.50;;;;;;;-141.50;100.00;63355.56;5009671;28;20065;-79
2024/02/24 06:13:54;;;;;;;1.73;0.60;;;;;;;-141.50;100.00;63355.56;5011632;28;20073;-78
2024/02/24 06:16:21;;;;;;;3.70;0.52;;;;;;;-141.50;100.00;63355.56;5011302;28;20054;-78
2024/02/24 06:18:48;;;;;;;0.73;0.40;;;;;;;-141.50;100.00;63355.56;5015339;28;20657;-79
2024/02/24 06:21:15;;;;;;;0.40;0.30;;;;;;;-141.50;100.00;63355.56;4996603;28;20069;-78
2024/02/24 06:23:41;;;;;;;0.90;0.30;;;;;;;-141.50;100.00;63355.56;4991793;28;20387;-78
2024/02/24 06:26:08;;;;;;;3.78;0.50;;;;;;;-141.50;100.00;63355.56;5009110;28;20058;-78
2024/02/24 06:28:35;;;;;;;2.42;0.55;;;;;;;-141.50;100.00;63355.56;5009933;28;20269;-77
2024/02/24 06:31:02;;;;;;;2.42;0.40;;;;;;;-141.50;100.00;63355.56;4984718;28;20423;-77
2024/02/24 06:33:29;;;;;;;1.60;0.60;;;;;;;-141.50;100.00;63355.56;4991614;28;20416;-78
2024/02/24 06:35:55;;;;;;;2.25;0.50;;;;;;;-141.50;100.00;63355.56;5010496;28;20058;-79
2024/02/24 06:38:22;;;;;;;1.17;0.32;;;;;;;-141.50;100.00;63355.56;5010090;28;20092;-79
2024/02/24 06:40:49;;;;;;;1.88;0.47;;;;;;;-141.50;100.00;63355.56;4996766;28;20057;-77
2024/02/24 06:43:15;;;;;;;4.30;0.20;;;;;;;-141.50;100.00;63355.56;5018033;28;20089;-78
2024/02/24 06:45:43;;;;;;;1.88;0.32;;;;;;;-141.50;100.00;63355.56;4997555;28;20135;-77
2024/02/24 06:48:10;;;;;;;2.25;0.40;;;;;;;-141.50;100.00;63355.56;5009294;28;20060;-76
2024/02/24 06:50:37;;;;;;;0.40;0.30;;;;;;;-141.50;100.00;63355.56;5010109;28;20571;-79
2024/02/24 06:53:04;;;;;;;3.33;0.40;;;;;;;-141.50;100.00;63355.56;5010594;28;20060;-77
2024/02/24 06:55:31;;;;;;;1.75;0.50;;;;;;;-141.50;100.00;63355.56;4992039;28;20052;-78
2024/02/24 06:57:58;;;;;;;1.58;0.52;;;;;;;-141.50;100.00;63355.56;5010305;28;20065;-79
2024/02/24 07:00:25;;;;;;;0.38;0.17;;;;;;;-141.50;100.00;63355.56;4991893;28;20060;-78
2024/02/24 07:02:53;;;;;;;0.15;0.13;;;;;;;-141.50;100.00;63355.56;4990827;28;20475;-77
2024/02/24 07:05:20;;;;;;;1.23;0.30;;;;;;;-141.50;100.00;63355.56;5009071;28;20156;-78
2024/02/24 07:07:47;;;;;;;0.70;0.20;;;;;;;-141.50;100.00;63355.56;5009008;28;20105;-79
2024/02/24 07:10:14;;;;;;;2.67;0.52;;;;;;;-141.50;100.00;63355.56;5009421;28;20057;-78
2024/02/24 07:12:41;;;;;;;1.20;0.30;;;;;;;-141.50;100.00;63355.56;5009135;28;20076;-79
2024/02/24 07:15:11;;;;;;;0.93;0.40;;;;;;;-141.50;100.00;63355.56;4976069;28;20060;-80
2024/02/24 07:17:38;;;;;;;2.28;0.38;;;;;;;-141.50;100.00;63355.56;4992336;28;20562;-79
2024/02/24 07:20:06;;;;;;;2.35;0.32;;;;;;;-141.50;100.00;63355.56;5010885;28;20061;-79
2024/02/24 07:22:34;;;;;;;0.32;0.20;;;;;;;-141.50;100.00;63355.56;4993201;28;20046;-78
2024/02/24 07:25:01;;;;;;;0.80;0.30;;;;;;;-141.50;100.00;63355.56;5011130;28;20068;-77
2024/02/24 07:27:28;;;;;;;0.20;0.20;;;;;;;-141.50;100.00;63355.56;5010429;28;20737;-77
2024/02/24 07:29:55;;;;;;;0.45;0.20;;;;;;;-141.50;100.00;63355.56;5010034;28;20061;-78
2024/02/24 07:32:22;;;;;;;0.50;0.30;;;;;;;-141.50;100.00;63355.56;5008788;28;20084;-79
2024/02/24 07:34:49;;;;;;;0.30;0.20;;;;;;;-141.50;100.00;63355.56;5008136;28;20050;-79
2024/02/24 07:37:16;;;;;;;1.15;0.40;;;;;;;-141.50;100.00;63355.56;4992069;28;20073;-80
2024/02/24 07:39:43;;;;;;;2.20;0.40;;;;;;;-141.50;100.00;63355.56;5009866;28;20045;-79
2024/02/24 07:42:10;;;;;;;4.28;0.30;;;;;;;-141.50;100.00;63355.56;4991868;28;20089;-79
2024/02/24 07:44:38;;;;;;;1.25;0.50;;;;;;;-141.50;100.00;63355.56;5009321;28;20449;-79
2024/02/24 07:47:06;;;;;;;0.80;0.40;;;;;;;-141.50;100.00;63355.56;5010099;28;20601;-79
2024/02/24 07:49:33;;;;;;;0.90;0.20;;;;;;;-141.50;100.00;63355.56;5003904;28;20125;-79
2024/02/24 07:52:00;;;;;;;0.55;0.25;;;;;;;-141.50;100.00;63355.56;4992869;28;20528;-77
2024/02/24 07:54:27;;;;;;;0.47;0.28;;;;;;;-141.50;100.00;63355.56;4990998;28;20053;-80
2024/02/24 07:56:53;;;;;;;1.05;0.40;;;;;;;-141.50;100.00;63355.56;4990752;28;20053;-77
2024/02/24 07:59:20;;;;;;;0.70;0.43;;;;;;;-141.50;100.00;63355.56;4991852;28;20096;-78
2024/02/24 08:01:47;;;;;;;1.50;0.50;;;;;;;-141.50;100.00;63355.56;4990568;28;20064;-77
2024/02/24 08:04:14;;;;;;;1.08;0.40;;;;;;;-141.50;100.00;63355.56;4992065;28;20054;-78
2024/02/24 08:06:41;;;;;;;1.20;0.50;;;;;;;-141.50;100.00;63355.56;5012347;28;20049;-78
2024/02/24 08:09:08;;;;;;;0.63;0.20;;;;;;;-141.50;100.00;63355.56;5008529;28;20132;-77
2024/02/24 08:11:39;;;;;;;1.75;0.52;;;;;;;-141.50;100.00;63355.56;4988579;28;20053;-78
2024/02/24 08:14:08;;;;;;;2.50;0.40;;;;;;;-141.50;100.00;63355.56;5007711;28;20062;-78
2024/02/24 08:16:35;;;;;;;2.10;0.65;;;;;;;-141.50;100.00;63355.56;5007739;28;20041;-78
2024/02/24 08:19:02;;;;;;;1.38;0.55;;;;;;;-141.50;100.00;63355.56;4995474;28;20093;-77
2024/02/24 08:21:31;;;;;;;2.42;0.40;;;;;;;-141.50;100.00;63355.56;5022479;28;20052;-78
2024/02/24 08:23:58;;;;;;;2.22;0.45;;;;;;;-141.50;100.00;63355.56;5003501;28;20082;-77
2024/02/24 08:26:25;;;;;;;1.38;0.38;;;;;;;-141.50;100.00;63355.56;5008247;28;20097;-78
2024/02/24 08:28:52;;;;;;;1.33;0.40;;;;;;;-141.50;100.00;63355.56;4982383;28;20056;-77
2024/02/24 08:31:18;;;;;;;2.88;0.30;;;;;;;-141.50;100.00;63355.56;5014598;28;20088;-77
2024/02/24 08:33:45;;;;;;;1.42;0.32;;;;;;;-141.50;100.00;63355.56;5002070;28;20076;-77
2024/02/24 08:36:15;;;;;;;0.73;0.40;;;;;;;-141.50;100.00;63355.56;4995827;28;20072;-77
2024/02/24 08:38:43;;;;;;;1.48;0.47;;;;;;;-141.50;100.00;63355.56;5006150;28;20672;-77
2024/02/24 08:41:10;;;;;;;0.28;0.20;;;;;;;-141.50;100.00;63355.56;5008737;28;20527;-77
2024/02/24 08:43:37;;;;;;;2.33;0.30;;;;;;;-141.50;100.00;63355.56;5009712;28;20049;-78
2024/02/24 08:46:04;;;;;;;2.35;0.40;;;;;;;-141.50;100.00;63355.56;5009820;28;20504;-78
2024/02/24 08:48:34;;;;;;;1.60;0.60;;;;;;;-141.50;100.00;63355.56;5004384;28;20052;-77
2024/02/24 08:51:03;;;;;;;1.08;0.40;;;;;;;-141.50;100.00;63355.56;4990047;28;20062;-79
2024/02/24 08:53:30;;;;;;;1.17;0.50;;;;;;;-141.50;100.00;63355.56;5008490;28;20041;-78
2024/02/24 08:56:01;;;;;;;3.33;0.40;;;;;;;-141.50;100.00;63355.56;5008923;28;20062;-77
2024/02/24 08:58:28;;;;;;;0.43;0.30;;;;;;;-141.50;100.00;63355.56;4993632;28;20037;-77
2024/02/24 09:00:56;;;;;;;0.98;0.40;;;;;;;-141.50;100.00;63355.56;5005978;28;20193;-77
2024/02/24 09:03:23;;;;;;;0.70;0.40;;;;;;;-141.50;100.00;63355.56;4994472;28;20065;-77
2024/02/24 09:05:51;;;;;;;1.35;0.60;;;;;;;-141.50;100.00;63355.56;5010502;28;20077;-77
2024/02/24 09:08:17;;;;;;;0.55;0.30;;;;;;;-141.50;100.00;63355.56;4984636;28;20049;-77
2024/02/24 09:10:44;;;;;;;1.85;0.60;;;;;;;-141.50;100.00;63355.56;5008449;28;20053;-77
2024/02/24 09:13:11;;;;;;;0.80;0.40;;;;;;;-141.50;100.00;63355.56;5007767;28;20419;-77
2024/02/24 09:15:38;;;;;;;0.80;0.20;;;;;;;-141.50;100.00;63355.56;5007778;28;20096;-76
2024/02/24 09:18:07;;;;;;;1.88;0.47;;;;;;;-141.50;100.00;63355.56;4991215;28;20469;-78
2024/02/24 09:20:35;;;;;;;0.85;0.32;;;;;;;-141.50;100.00;63355.56;4972034;28;20046;-79
2024/02/24 09:23:03;;;;;;;2.15;0.45;;;;;;;-141.50;100.00;63355.56;4992825;28;20141;-78
2024/02/24 09:25:29;;;;;;;2.40;0.30;;;;;;;-141.50;100.00;63355.56;4995984;28;20049;-78
2024/02/24 09:27:56;;;;;;;1.42;0.50;;;;;;;-141.50;100.00;63355.56;5011191;28;20049;-76
2024/02/24 09:30:23;;;;;;;2.58;0.30;;;;;;;-141.50;100.00;63355.56;4981048;28;20068;-78
2024/02/24 09:32:50;;;;;;;1.30;0.50;;;;;;;-141.50;100.00;63355.56;4991653;28;20112;-76
2024/02/24 09:35:17;;;;;;;0.98;0.38;;;;;;;-141.50;100.00;63355.56;5008820;28;20088;-76
2024/02/24 09:37:44;;;;;;;0.82;0.40;;;;;;;-141.50;100.00;63355.56;4993076;28;20054;-77
2024/02/24 09:40:11;;;;;;;1.17;0.45;;;;;;;-141.50;100.00;63355.56;4993481;28;20389;-77
2024/02/24 09:42:39;;;;;;;1.08;0.40;;;;;;;-141.50;100.00;63355.56;5011256;28;20567;-77
2024/02/24 09:45:13;;;;;;;1.20;0.43;;;;;;;-141.50;100.00;63355.56;5010438;28;20064;-77
2024/02/24 09:47:42;;;;;;;0.98;0.40;;;;;;;-141.50;100.00;63355.56;5014891;28;20057;-78
2024/02/24 09:50:11;;;;;;;2.15;0.40;;;;;;;-141.50;100.00;63355.56;5011100;28;20050;-77
2024/02/24 09:52:39;;;;;;;1.17;0.50;;;;;;;-141.50;100.00;63355.56;5012758;28;20053;-77
2024/02/24 09:55:06;;;;;;;3.53;0.43;;;;;;;-141.50;100.00;63355.56;4990086;28;20157;-77
2024/02/24 09:57:35;;;;;;;1.30;0.50;;;;;;;-141.50;100.00;63355.56;5018959;28;20092;-78
2024/02/24 10:00:06;;;;;;;2.17;0.40;;;;;;;-141.50;100.00;63355.56;5023380;28;20045;-78
2024/02/24 10:02:41;;;;;;;3.53;0.60;;;;;;;-141.50;100.00;63355.56;5011317;28;20064;-78
2024/02/24 10:05:08;;;;;;;1.92;0.40;;;;;;;-141.50;100.00;63355.56;5012601;28;21225;-77
2024/02/24 10:07:35;;;;;;;0.80;0.35;;;;;;;-141.50;100.00;63355.56;4994573;28;20069;-78
2024/02/24 10:10:03;;;;;;;4.90;0.60;;;;;;;-141.50;100.00;63355.56;5011263;28;20489;-79
2024/02/24 10:12:30;;;;;;;1.42;0.45;;;;;;;-141.50;100.00;63355.56;5011377;28;20045;-78
2024/02/24 10:14:57;;;;;;;1.10;0.40;;;;;;;-141.50;100.00;63355.56;5011867;28;20057;-79
2024/02/24 10:17:28;;;;;;;2.33;0.82;;;;;;;-141.50;100.00;63355.56;5011906;28;20092;-80
2024/02/24 10:19:56;;;;;;;1.58;0.75;;;;;;;-141.50;100.00;63355.56;4991995;28;20500;-79
2024/02/24 10:22:23;;;;;;;1.77;0.50;;;;;;;-141.50;100.00;63355.56;4994337;28;20081;-78
2024/02/24 10:24:50;;;;;;;1.55;0.50;;;;;;;-141.50;100.00;63355.56;4997338;28;20050;-78
2024/02/24 10:27:17;;;;;;;2.30;0.50;;;;;;;-141.50;100.00;63355.56;5011395;28;20046;-77
2024/02/24 10:29:50;;;;;;;2.03;0.50;;;;;;;-141.50;100.00;63355.56;5011608;28;20046;-77
2024/02/24 10:32:18;;;;;;;1.42;0.40;;;;;;;-141.50;100.00;63355.56;4999084;28;20112;-79
2024/02/24 10:34:44;;;;;;;1.23;0.65;;;;;;;-141.50;100.00;63355.56;5011999;28;20054;-78
2024/02/24 10:37:12;;;;;;;1.63;0.65;;;;;;;-141.50;100.00;63355.56;4992604;28;20132;-80
2024/02/24 10:39:39;;;;;;;1.08;0.35;;;;;;;-141.50;100.00;63355.56;5010952;28;20419;-78
2024/02/24 10:42:06;;;;;;;1.55;0.47;;;;;;;-141.50;100.00;63355.56;5015324;28;20046;-79
2024/02/24 10:44:33;;;;;;;0.88;0.50;;;;;;;-141.50;100.00;63355.56;5011736;28;20141;-79
2024/02/24 10:47:01;;;;;;;2.30;0.57;;;;;;;-141.50;100.00;63355.56;5011134;28;20049;-78
2024/02/24 10:49:29;;;;;;;2.10;0.57;;;;;;;-141.50;100.00;63355.56;4974783;28;20129;-78
2024/02/24 10:51:57;;;;;;;2.05;0.82;;;;;;;-141.50;100.00;63355.56;5011315;28;20056;-79
2024/02/24 10:54:30;;;;;;;2.22;0.57;;;;;;;-141.50;100.00;63355.56;5012823;28;20065;-78
2024/02/24 10:57:02;;;;;;;1.17;0.60;;;;;;;-141.50;100.00;63355.56;5010198;28;20052;-78
2024/02/24 10:59:30;;;;;;;3.25;0.70;;;;;;;-141.50;100.00;63355.56;5010352;28;20563;-79
2024/02/24 11:02:02;;;;;;;1.23;0.50;;;;;;;-141.50;100.00;63355.56;4993139;28;20606;-79
2024/02/24 11:04:32;;;;;;;1.20;0.55;;;;;;;-141.50;100.00;63355.56;5010585;28;20049;-78
2024/02/24 11:07:00;;;;;;;1.15;0.60;;;;;;;-141.50;100.00;63355.56;5011323;28;20129;-78
2024/02/24 11:09:38;;;;;;;2.80;0.70;;;;;;;-141.50;100.00;63355.56;4991869;28;20040;-77